Time;durP1;ratioP1;P1;durP2;ratioP2;P2;SDS_P1;SDS_P2;PMS_P1;PMS_P2;Temp;Humidity;BMP_temperature;BMP_pressure;BME280_temperature;BME280_humidity;BME280_pressure;Samples;Min_cycle;Max_cycle;Signal;HPM_P1;HPM_P2
2023/10/18 00:00:03;;;;;;;;;;;;;;;11.75;nan;101943.66;4975002;28;19970;-86
2023/10/18 00:02:37;;;;;;;;;;;;;;;11.72;nan;101941.44;4977005;28;19997;-87
2023/10/18 00:05:10;;;;;;;;;;;;;;;11.67;nan;101943.97;4978208;28;19933;-87
2023/10/18 00:07:51;;;;;;;;;;;;;;;11.56;nan;101943.91;4974995;28;20200;-86
2023/10/18 00:10:20;;;;;;;;;;;;;;;11.52;nan;101943.53;4973971;28;20012;-87
2023/10/18 00:12:56;;;;;;;;;;;;;;;11.52;nan;101946.22;4971123;28;20177;-87
2023/10/18 00:15:22;;;;;;;;;;;;;;;11.47;nan;101948.75;4978713;28;19952;-87
2023/10/18 00:17:50;;;;;;;;;;;;;;;11.46;nan;101944.41;4973112;28;19922;-87
2023/10/18 00:20:20;;;;;;;;;;;;;;;11.43;nan;101940.34;4975307;28;20490;-87
2023/10/18 00:22:48;;;;;;;;;;;;;;;11.41;nan;101944.28;4973114;28;19984;-87
2023/10/18 00:25:16;;;;;;;;;;;;;;;11.38;nan;101945.56;4970778;28;20434;-87
2023/10/18 00:27:46;;;;;;;;;;;;;;;11.36;nan;101949.50;4976960;28;20278;-86
2023/10/18 00:30:12;;;;;;;;;;;;;;;11.31;nan;101946.66;4976583;28;19925;-86
2023/10/18 00:32:44;;;;;;;;;;;;;;;11.27;nan;101940.09;4973240;28;19936;-87
2023/10/18 00:35:20;;;;;;;;;;;;;;;11.25;nan;101934.16;4972353;28;19977;-87
2023/10/18 00:37:47;;;;;;;;;;;;;;;11.23;nan;101941.59;4977054;28;20374;-87
2023/10/18 00:40:36;;;;;;;;;;;;;;;11.20;nan;101932.97;4976008;28;20012;-87
2023/10/18 00:43:30;;;;;;;;;;;;;;;11.16;nan;101933.63;4976424;28;19922;-86
2023/10/18 00:45:57;;;;;;;;;;;;;;;11.11;nan;101928.91;4973491;28;20559;-86
2023/10/18 00:48:23;;;;;;;;;;;;;;;11.06;nan;101933.31;4958898;28;20000;-87
2023/10/18 00:50:52;;;;;;;;;;;;;;;11.01;nan;101931.31;4974373;28;19922;-86
2023/10/18 00:53:23;;;;;;;;;;;;;;;10.98;nan;101929.06;4974065;28;19917;-87
2023/10/18 00:56:04;;;;;;;;;;;;;;;10.95;nan;101921.47;4973393;28;20035;-87
2023/10/18 00:58:39;;;;;;;;;;;;;;;10.88;nan;101912.66;4973978;28;20268;-87
2023/10/18 01:01:09;;;;;;;;;;;;;;;10.82;nan;101905.53;4974575;28;19922;-86
2023/10/18 01:03:56;;;;;;;;;;;;;;;10.82;nan;101900.16;4972867;28;19930;-86
2023/10/18 01:06:26;;;;;;;;;;;;;;;10.83;nan;101902.63;4972941;28;20081;-86
2023/10/18 01:08:58;;;;;;;;;;;;;;;10.81;nan;101901.19;4974941;28;19922;-86
2023/10/18 01:11:29;;;;;;;;;;;;;;;10.78;nan;101901.66;4974172;28;19981;-87
2023/10/18 01:14:01;;;;;;;;;;;;;;;10.71;nan;101904.38;4972532;28;19922;-87
2023/10/18 01:16:34;;;;;;;;;;;;;;;10.67;nan;101905.03;4975313;28;19926;-86
2023/10/18 01:19:01;;;;;;;;;;;;;;;10.63;nan;101906.53;4978815;28;19922;-87
2023/10/18 01:21:28;;;;;;;;;;;;;;;10.58;nan;101899.13;4973478;28;19921;-86
2023/10/18 01:23:56;;;;;;;;;;;;;;;10.57;nan;101909.03;4971354;28;20464;-87
2023/10/18 01:26:29;;;;;;;;;;;;;;;10.53;nan;101901.66;4978496;28;20502;-86
2023/10/18 01:28:57;;;;;;;;;;;;;;;10.49;nan;101898.59;4975047;28;19944;-87
2023/10/18 01:31:44;;;;;;;;;;;;;;;10.43;nan;101902.16;4973521;28;19918;-86
2023/10/18 01:34:10;;;;;;;;;;;;;;;10.38;nan;101899.28;4970554;28;20005;-86
2023/10/18 01:36:39;;;;;;;;;;;;;;;10.36;nan;101900.56;4974879;28;20309;-87
2023/10/18 01:39:28;;;;;;;;;;;;;;;10.34;nan;101900.78;4971552;28;19928;-86
2023/10/18 01:41:58;;;;;;;;;;;;;;;10.28;nan;101898.97;4972851;28;19929;-86
2023/10/18 01:44:33;;;;;;;;;;;;;;;10.23;nan;101896.09;4971117;28;20449;-86
2023/10/18 01:47:08;;;;;;;;;;;;;;;10.22;nan;101897.16;4968794;28;20021;-86
2023/10/18 01:49:50;;;;;;;;;;;;;;;10.18;nan;101899.41;4973278;28;19929;-85
2023/10/18 01:52:20;;;;;;;;;;;;;;;10.15;nan;101893.69;4974165;28;20378;-86
2023/10/18 01:54:48;;;;;;;;;;;;;;;10.12;nan;101888.75;4967950;28;19937;-87
2023/10/18 01:57:34;;;;;;;;;;;;;;;10.10;nan;101898.88;4971950;28;19918;-86
2023/10/18 02:00:01;;;;;;;;;;;;;;;10.07;nan;101894.78;4970866;28;20386;-86
2023/10/18 02:02:26;;;;;;;;;;;;;;;10.02;nan;101880.38;4969830;28;19929;-86
2023/10/18 02:04:56;;;;;;;;;;;;;;;9.92;nan;101889.72;4970034;28;19922;-86
2023/10/18 02:07:24;;;;;;;;;;;;;;;9.85;nan;101888.91;4972701;28;19926;-87
2023/10/18 02:09:57;;;;;;;;;;;;;;;9.82;nan;101889.34;4969767;28;20806;-87
2023/10/18 02:12:35;;;;;;;;;;;;;;;9.78;nan;101893.50;4976190;28;19928;-87
2023/10/18 02:15:11;;;;;;;;;;;;;;;9.77;nan;101889.19;4971911;28;19922;-86
2023/10/18 02:17:40;;;;;;;;;;;;;;;9.75;nan;101890.44;4973636;28;19918;-86
2023/10/18 02:20:26;;;;;;;;;;;;;;;9.70;nan;101891.09;4972313;28;19948;-87
2023/10/18 02:23:00;;;;;;;;;;;;;;;9.67;nan;101886.16;4970972;28;19932;-86
2023/10/18 02:25:42;;;;;;;;;;;;;;;9.66;nan;101881.81;4969121;28;19922;-85
2023/10/18 02:28:32;;;;;;;;;;;;;;;9.62;nan;101883.31;4970944;28;19922;-86
2023/10/18 02:30:57;;;;;;;;;;;;;;;9.59;nan;101878.38;4970255;28;20488;-86
2023/10/18 02:33:56;;;;;;;;;;;;;;;9.58;nan;101872.22;4970249;28;19921;-86
2023/10/18 02:36:32;;;;;;;;;;;;;;;9.56;nan;101874.28;4970658;28;20513;-86
2023/10/18 02:38:59;;;;;;;;;;;;;;;9.53;nan;101872.03;4972651;28;20072;-86
2023/10/18 02:41:47;;;;;;;;;;;;;;;9.52;nan;101869.56;4972923;28;19926;-86
2023/10/18 02:44:21;;;;;;;;;;;;;;;9.50;nan;101872.44;4971977;28;20020;-85
2023/10/18 02:47:07;;;;;;;;;;;;;;;9.49;nan;101864.63;4969849;28;19926;-86
2023/10/18 02:49:47;;;;;;;;;;;;;;;9.48;nan;101860.31;4969803;28;19925;-86
2023/10/18 02:52:16;;;;;;;;;;;;;;;9.47;nan;101859.50;4971095;28;19972;-86
2023/10/18 02:54:42;;;;;;;;;;;;;;;9.48;nan;101860.31;4969837;28;19922;-86
2023/10/18 02:57:07;;;;;;;;;;;;;;;9.45;nan;101863.41;4969377;28;19918;-86
2023/10/18 02:59:36;;;;;;;;;;;;;;;9.38;nan;101861.59;4973397;28;19918;-86
2023/10/18 03:02:24;;;;;;;;;;;;;;;9.31;nan;101866.16;4969245;28;20319;-86
2023/10/18 03:04:52;;;;;;;;;;;;;;;9.31;nan;101851.97;4974750;28;20248;-86
2023/10/18 03:07:22;;;;;;;;;;;;;;;9.31;nan;101852.78;4972097;28;20335;-86
2023/10/18 03:09:49;;;;;;;;;;;;;;;9.29;nan;101849.50;4970627;28;20548;-86
2023/10/18 03:12:15;;;;;;;;;;;;;;;9.27;nan;101840.88;4970881;28;19922;-85
2023/10/18 03:14:54;;;;;;;;;;;;;;;9.25;nan;101844.78;4968046;28;20418;-86
2023/10/18 03:17:23;;;;;;;;;;;;;;;9.22;nan;101845.22;4971789;28;19925;-86
2023/10/18 03:19:54;;;;;;;;;;;;;;;9.21;nan;101847.06;4969541;28;20066;-85
2023/10/18 03:22:32;;;;;;;;;;;;;;;9.21;nan;101843.59;4969139;28;19977;-85
2023/10/18 03:25:01;;;;;;;;;;;;;;;9.16;nan;101843.41;4970934;28;20326;-85
2023/10/18 03:27:32;;;;;;;;;;;;;;;9.16;nan;101843.41;4969480;28;19918;-85
2023/10/18 03:30:17;;;;;;;;;;;;;;;9.16;nan;101840.72;4968752;28;20008;-86
2023/10/18 03:32:54;;;;;;;;;;;;;;;9.13;nan;101838.44;4971768;28;19922;-85
2023/10/18 03:35:23;;;;;;;;;;;;;;;9.11;nan;101833.31;4972825;28;20382;-85
2023/10/18 03:37:50;;;;;;;;;;;;;;;9.05;nan;101834.19;4969336;28;20771;-86
2023/10/18 03:40:27;;;;;;;;;;;;;;;9.04;nan;101829.88;4968148;28;19957;-85
2023/10/18 03:42:58;;;;;;;;;;;;;;;8.98;nan;101826.19;4970538;28;19952;-85
2023/10/18 03:45:43;;;;;;;;;;;;;;;8.98;nan;101833.41;4971655;28;19953;-86
2023/10/18 03:48:23;;;;;;;;;;;;;;;8.98;nan;101820.03;4972275;28;20297;-86
2023/10/18 03:50:54;;;;;;;;;;;;;;;8.96;nan;101820.22;4972585;28;19933;-85
2023/10/18 03:53:19;;;;;;;;;;;;;;;8.95;nan;101820.44;4972152;28;19932;-85
2023/10/18 03:55:56;;;;;;;;;;;;;;;8.93;nan;101811.78;4972428;28;19926;-85
2023/10/18 03:58:22;;;;;;;;;;;;;;;8.91;nan;101806.66;4973138;28;19930;-85
2023/10/18 04:00:54;;;;;;;;;;;;;;;8.91;nan;101806.66;4970357;28;19929;-86
2023/10/18 04:03:20;;;;;;;;;;;;;;;8.90;nan;101804.22;4971351;28;19989;-85
2023/10/18 04:05:49;;;;;;;;;;;;;;;8.91;nan;101806.66;4969501;28;20310;-85
2023/10/18 04:08:19;;;;;;;;;;;;;;;8.85;nan;101804.03;4971141;28;20464;-85
2023/10/18 04:11:04;;;;;;;;;;;;;;;8.73;nan;101810.00;4970584;28;20016;-85
2023/10/18 04:13:36;;;;;;;;;;;;;;;8.69;nan;101807.97;4970414;28;19941;-85
2023/10/18 04:16:10;;;;;;;;;;;;;;;8.65;nan;101802.22;4971529;28;19921;-85
2023/10/18 04:18:44;;;;;;;;;;;;;;;8.63;nan;101793.63;4967130;28;20407;-85
2023/10/18 04:21:15;;;;;;;;;;;;;;;8.63;nan;101788.28;4968267;28;19924;-85
2023/10/18 04:23:49;;;;;;;;;;;;;;;8.63;nan;101798.97;4969090;28;19922;-85
2023/10/18 04:26:18;;;;;;;;;;;;;;;8.62;nan;101796.50;4969906;28;19918;-85
2023/10/18 04:28:45;;;;;;;;;;;;;;;8.62;nan;101786.63;4976821;28;20077;-85
2023/10/18 04:31:12;;;;;;;;;;;;;;;8.63;nan;101787.44;4967709;28;20017;-85
2023/10/18 04:33:42;;;;;;;;;;;;;;;8.61;nan;101781.47;4969556;28;20025;-86
2023/10/18 04:36:33;;;;;;;;;;;;;;;8.58;nan;101782.72;4969998;28;19930;-85
2023/10/18 04:39:05;;;;;;;;;;;;;;;8.57;nan;101775.72;4971777;28;20401;-85
2023/10/18 04:41:36;;;;;;;;;;;;;;;8.59;nan;101764.84;4969476;28;19965;-85
2023/10/18 04:44:05;;;;;;;;;;;;;;;8.58;nan;101764.00;4975636;28;19952;-85
2023/10/18 04:46:35;;;;;;;;;;;;;;;8.55;nan;101774.31;4971142;28;19917;-85
2023/10/18 04:51:44;;;;;;;;;;;;;;;8.56;nan;101787.44;4974404;28;20389;-85
2023/10/18 04:54:15;;;;;;;;;;;;;;;8.56;nan;101776.75;4972980;28;19922;-85
2023/10/18 04:56:45;;;;;;;;;;;;;;;8.54;nan;101768.13;4976277;28;20453;-85
2023/10/18 04:59:19;;;;;;;;;;;;;;;8.52;nan;101770.22;4972552;28;20378;-85
2023/10/18 05:04:32;;;;;;;;;;;;;;;8.48;nan;101785.00;4971299;28;20356;-85
2023/10/18 05:07:14;;;;;;;;;;;;;;;8.40;nan;101794.06;4970113;28;20155;-85
2023/10/18 05:09:43;;;;;;;;;;;;;;;8.36;nan;101790.16;4970712;28;19984;-85
2023/10/18 05:12:42;;;;;;;;;;;;;;;8.36;nan;101784.00;4969715;28;19918;-85
2023/10/18 05:15:30;;;;;;;;;;;;;;;8.36;nan;101776.00;4972227;28;19933;-85
2023/10/18 05:18:15;;;;;;;;;;;;;;;8.33;nan;101779.06;4972964;28;19953;-86
2023/10/18 05:20:41;;;;;;;;;;;;;;;8.34;nan;101775.38;4972369;28;20394;-85
2023/10/18 05:23:27;;;;;;;;;;;;;;;8.34;nan;101775.38;4971371;28;19968;-85
2023/10/18 05:28:46;;;;;;;;;;;;;;;8.34;nan;101770.84;4973150;28;19928;-85
2023/10/18 05:34:04;;;;;;;;;;;;;;;8.31;nan;101778.44;4970410;28;19945;-85
2023/10/18 05:37:13;;;;;;;;;;;;;;;8.31;nan;101775.78;4968735;28;19930;-84
2023/10/18 05:41:59;;;;;;;;;;;;;;;8.31;nan;101789.13;4973830;28;20088;-86
2023/10/18 05:44:25;;;;;;;;;;;;;;;8.30;nan;101787.47;4964483;28;20024;-85
2023/10/18 05:46:52;;;;;;;;;;;;;;;8.28;nan;101779.69;4970167;28;20625;-85
2023/10/18 05:49:28;;;;;;;;;;;;;;;8.25;nan;101776.56;4967461;28;19945;-86
2023/10/18 05:52:16;;;;;;;;;;;;;;;8.21;nan;101784.19;4970713;28;19925;-86
2023/10/18 05:54:43;;;;;;;;;;;;;;;8.22;nan;101779.66;4969901;28;19918;-86
2023/10/18 05:57:15;;;;;;;;;;;;;;;8.21;nan;101783.38;4971310;28;20279;-84
2023/10/18 05:59:48;;;;;;;;;;;;;;;8.18;nan;101785.44;4968736;28;19932;-85
2023/10/18 06:02:22;;;;;;;;;;;;;;;8.18;nan;101788.09;4976495;28;20026;-86
2023/10/18 06:04:51;;;;;;;;;;;;;;;8.21;nan;101788.72;4972651;28;20255;-86
2023/10/18 06:07:23;;;;;;;;;;;;;;;8.25;nan;101784.59;4969235;28;19949;-86
2023/10/18 06:10:07;;;;;;;;;;;;;;;8.28;nan;101789.53;4967704;28;21366;-86
2023/10/18 06:12:39;;;;;;;;;;;;;;;8.30;nan;101787.47;4970482;28;20406;-86
2023/10/18 06:15:11;;;;;;;;;;;;;;;8.32;nan;101790.75;4970070;28;20202;-87
2023/10/18 06:17:47;;;;;;;;;;;;;;;8.35;nan;101793.03;4972002;28;19918;-86
2023/10/18 06:20:29;;;;;;;;;;;;;;;8.36;nan;101786.66;4970833;28;20020;-87
2023/10/18 06:25:45;;;;;;;;;;;;;;;8.30;nan;101787.47;4970399;28;19973;-87
2023/10/18 06:28:21;;;;;;;;;;;;;;;8.32;nan;101786.25;4972657;28;19924;-86
2023/10/18 06:30:51;;;;;;;;;;;;;;;8.36;nan;101786.66;4968334;28;19926;-87
2023/10/18 06:33:21;;;;;;;;;;;;;;;8.42;nan;101780.47;4977936;28;19929;-87
2023/10/18 06:35:51;;;;;;;;;;;;;;;8.49;nan;101783.97;4970290;28;19970;-87
2023/10/18 06:38:24;;;;;;;;;;;;;;;8.54;nan;101786.03;4973984;28;20382;-87
2023/10/18 06:41:04;;;;;;;;;;;;;;;8.59;nan;101784.34;4971379;28;20143;-87
2023/10/18 06:43:32;;;;;;;;;;;;;;;8.66;nan;101779.00;4971396;28;20173;-86
2023/10/18 06:45:58;;;;;;;;;;;;;;;8.76;nan;101782.88;4971233;28;19921;-87
2023/10/18 06:48:30;;;;;;;;;;;;;;;8.81;nan;101786.78;4972009;28;19921;-88
2023/10/18 06:50:58;;;;;;;;;;;;;;;8.88;nan;101795.59;4979106;28;19929;-88
2023/10/18 06:53:30;;;;;;;;;;;;;;;8.90;nan;101793.53;4976200;28;20374;-86
2023/10/18 06:56:19;;;;;;;;;;;;;;;8.96;nan;101784.63;4976777;28;19922;-87
2023/10/18 06:58:48;;;;;;;;;;;;;;;9.02;nan;101789.97;4978551;28;19918;-86
2023/10/18 07:01:30;;;;;;;;;;;;;;;9.06;nan;101798.38;4970216;28;19928;-88
2023/10/18 07:04:07;;;;;;;;;;;;;;;9.20;nan;101801.84;4973338;28;20169;-88
2023/10/18 07:06:36;;;;;;;;;;;;;;;9.36;nan;101793.31;4975338;28;20453;-88
2023/10/18 07:09:09;;;;;;;;;;;;;;;9.52;nan;101786.66;4970922;28;19971;-88
2023/10/18 07:11:39;;;;;;;;;;;;;;;9.64;nan;101791.06;4971163;28;19922;-88
2023/10/18 07:14:05;;;;;;;;;;;;;;;9.78;nan;101790.97;4970628;28;19932;-89
2023/10/18 07:16:38;;;;;;;;;;;;;;;9.88;nan;101781.44;4968127;28;19926;-88
2023/10/18 07:21:50;;;;;;;;;;;;;;;10.03;nan;101783.78;4975581;28;19933;-88
2023/10/18 07:24:25;;;;;;;;;;;;;;;10.10;nan;101786.41;4973043;28;19922;-88
2023/10/18 07:26:53;;;;;;;;;;;;;;;10.17;nan;101782.63;4973545;28;19937;-88
2023/10/18 07:29:21;;;;;;;;;;;;;;;10.25;nan;101776.22;4974746;28;20282;-89
2023/10/18 07:31:49;;;;;;;;;;;;;;;10.38;nan;101784.09;4972944;28;19926;-90
2023/10/18 07:34:31;;;;;;;;;;;;;;;10.44;nan;101790.44;4972935;28;20008;-89
2023/10/18 07:36:57;;;;;;;;;;;;;;;10.54;nan;101785.38;4972979;28;19922;-89
2023/10/18 07:39:25;;;;;;;;;;;;;;;10.66;nan;101780.09;4978885;28;19926;-89
2023/10/18 07:41:55;;;;;;;;;;;;;;;10.77;nan;101780.19;4976512;28;20454;-88
2023/10/18 07:44:26;;;;;;;;;;;;;;;10.87;nan;101779.66;4977426;28;19933;-89
2023/10/18 07:47:03;;;;;;;;;;;;;;;11.00;nan;101774.13;4978470;28;19977;-89
2023/10/18 07:49:34;;;;;;;;;;;;;;;11.18;nan;101776.78;4976703;28;19921;-88
2023/10/18 07:52:06;;;;;;;;;;;;;;;11.35;nan;101782.34;4974251;28;19924;-89
2023/10/18 07:54:35;;;;;;;;;;;;;;;11.52;nan;101777.16;4977598;28;19921;-89
2023/10/18 07:57:08;;;;;;;;;;;;;;;11.67;nan;101774.84;4974370;28;19984;-89
2023/10/18 07:59:46;;;;;;;;;;;;;;;11.78;nan;101770.53;4978576;28;20016;-89
2023/10/18 08:04:42;;;;;;;;;;;;;;;12.02;nan;101771.41;4981892;28;20007;-90
2023/10/18 08:07:18;;;;;;;;;;;;;;;12.15;nan;101765.00;4977883;28;19937;-89
2023/10/18 08:09:57;;;;;;;;;;;;;;;12.27;nan;101766.63;4973426;28;20374;-89
2023/10/18 08:12:35;;;;;;;;;;;;;;;12.39;nan;101762.09;4968559;28;19929;-88
2023/10/18 08:15:13;;;;;;;;;;;;;;;12.55;nan;101754.31;4978201;28;19922;-89
2023/10/18 08:17:46;;;;;;;;;;;;;;;12.71;nan;101749.03;4977080;28;19918;-89
2023/10/18 08:26:06;;;;;;;;;;;;;;;13.34;nan;101730.34;4974792;28;20225;-88
2023/10/18 08:28:38;;;;;;;;;;;;;;;13.48;nan;101729.81;4980850;28;19926;-90
2023/10/18 08:31:29;;;;;;;;;;;;;;;13.71;nan;101736.09;4982459;28;19973;-88
2023/10/18 08:33:57;;;;;;;;;;;;;;;13.92;nan;101724.56;4983587;28;20378;-88
2023/10/18 08:36:31;;;;;;;;;;;;;;;14.10;nan;101723.50;4981404;28;19926;-89
2023/10/18 08:39:08;;;;;;;;;;;;;;;14.29;nan;101735.63;4974735;28;20005;-90
2023/10/18 08:41:37;;;;;;;;;;;;;;;14.48;nan;101730.78;4984354;28;19921;-88
2023/10/18 08:44:25;;;;;;;;;;;;;;;14.66;nan;101732.34;4982320;28;19918;-89
2023/10/18 08:47:04;;;;;;;;;;;;;;;14.88;nan;101729.63;4981555;28;19926;-89
2023/10/18 08:49:50;;;;;;;;;;;;;;;15.09;nan;101728.81;4979487;28;19947;-89
2023/10/18 08:52:21;;;;;;;;;;;;;;;15.26;nan;101731.38;4977902;28;19929;-89
2023/10/18 08:54:51;;;;;;;;;;;;;;;15.41;nan;101726.94;4985078;28;21375;-89
2023/10/18 08:57:36;;;;;;;;;;;;;;;15.59;nan;101730.38;4982227;28;20271;-88
2023/10/18 09:02:57;;;;;;;;;;;;;;;15.94;nan;101717.13;4978975;28;20275;-89
2023/10/18 09:05:27;;;;;;;;;;;;;;;16.13;nan;101720.22;4976913;28;19944;-88
2023/10/18 09:07:54;;;;;;;;;;;;;;;16.28;nan;101730.31;4982293;28;19976;-89
2023/10/18 09:10:43;;;;;;;;;;;;;;;16.44;nan;101723.91;4981294;28;19918;-89
2023/10/18 09:18:26;;;;;;;;;;;;;;;16.78;nan;101724.34;4978072;28;20112;-89
2023/10/18 09:20:55;;;;;;;;;;;;;;;16.87;nan;101732.75;4975719;28;19933;-89
2023/10/18 09:23:30;;;;;;;;;;;;;;;16.88;nan;101732.53;4980318;28;19918;-88
2023/10/18 09:26:10;;;;;;;;;;;;;;;17.04;nan;101725.22;4974518;28;19926;-89
2023/10/18 09:28:43;;;;;;;;;;;;;;;17.23;nan;101725.53;4982168;28;20205;-89
2023/10/18 09:31:18;;;;;;;;;;;;;;;17.43;nan;101722.88;4982988;28;19976;-89
2023/10/18 09:33:50;;;;;;;;;;;;;;;17.63;nan;101719.34;4981264;28;19922;-88
2023/10/18 09:36:29;;;;;;;;;;;;;;;17.74;nan;101728.31;4975029;28;19968;-89
2023/10/18 09:38:58;;;;;;;;;;;;;;;17.90;nan;101720.97;4977343;28;19963;-89
2023/10/18 09:41:31;;;;;;;;;;;;;;;18.08;nan;101712.25;4976266;28;20362;-89
2023/10/18 09:44:18;;;;;;;;;;;;;;;18.27;nan;101715.19;4976928;28;20480;-88
2023/10/18 09:46:54;;;;;;;;;;;;;;;18.32;nan;101718.72;4978483;28;19972;-88
2023/10/18 09:49:24;;;;;;;;;;;;;;;18.40;nan;101720.84;4978403;28;19981;-89
2023/10/18 09:51:55;;;;;;;;;;;;;;;18.51;nan;101712.69;4978361;28;20044;-89
2023/10/18 09:54:22;;;;;;;;;;;;;;;18.61;nan;101720.78;4980770;28;20467;-89
2023/10/18 09:56:54;;;;;;;;;;;;;;;18.62;nan;101722.41;4977516;28;19926;-89
2023/10/18 09:59:26;;;;;;;;;;;;;;;18.69;nan;101722.97;4978849;28;19965;-89
2023/10/18 10:02:00;;;;;;;;;;;;;;;18.70;nan;101719.97;4974464;28;19945;-90
2023/10/18 10:04:32;;;;;;;;;;;;;;;18.76;nan;101728.06;4980696;28;19926;-88
2023/10/18 10:10:17;;;;;;;;;;;;;;;18.89;nan;101709.28;4979721;28;19980;-89
2023/10/18 10:12:42;;;;;;;;;;;;;;;19.01;nan;101698.84;4976212;28;19917;-89
2023/10/18 10:15:24;;;;;;;;;;;;;;;19.24;nan;101696.56;4974160;28;19925;-89
2023/10/18 10:17:57;;;;;;;;;;;;;;;19.37;nan;101687.75;4981247;28;19933;-90
2023/10/18 10:20:23;;;;;;;;;;;;;;;19.51;nan;101671.59;4975076;28;20358;-89
2023/10/18 10:22:52;;;;;;;;;;;;;;;19.49;nan;101671.88;4977813;28;19953;-88
2023/10/18 10:25:31;;;;;;;;;;;;;;;19.55;nan;101668.03;4977669;28;20374;-88
2023/10/18 10:27:59;;;;;;;;;;;;;;;19.71;nan;101666.00;4979773;28;19992;-88
2023/10/18 10:30:34;;;;;;;;;;;;;;;19.90;nan;101661.44;4972925;28;19922;-89
2023/10/18 10:33:12;;;;;;;;;;;;;;;20.05;nan;101668.63;4981697;28;19989;-89
2023/10/18 10:35:48;;;;;;;;;;;;;;;20.27;nan;101662.66;4978670;28;19972;-90
2023/10/18 10:38:18;;;;;;;;;;;;;;;20.34;nan;101662.31;4977104;28;19925;-88
2023/10/18 10:40:49;;;;;;;;;;;;;;;20.41;nan;101660.06;4974842;28;19922;-89
2023/10/18 10:43:39;;;;;;;;;;;;;;;20.52;nan;101659.66;4976355;28;19969;-88
2023/10/18 10:46:35;;;;;;;;;;;;;;;20.73;nan;101648.47;4975839;28;19922;-89
2023/10/18 10:49:06;;;;;;;;;;;;;;;20.86;nan;101649.66;4975677;28;19925;-90
2023/10/18 10:51:37;;;;;;;;;;;;;;;20.76;nan;101640.53;4961338;28;19968;-89
2023/10/18 10:54:06;;;;;;;;;;;;;;;20.68;nan;101649.38;4980053;28;19965;-89
2023/10/18 10:56:33;;;;;;;;;;;;;;;20.71;nan;101648.78;4980224;28;20373;-89
2023/10/18 10:59:15;;;;;;;;;;;;;;;20.78;nan;101643.75;4979315;28;19918;-89
2023/10/18 11:02:06;;;;;;;;;;;;;;;20.94;nan;101638.09;4977012;28;19918;-89
2023/10/18 11:07:34;;;;;;;;;;;;;;;21.29;nan;101626.66;4988526;28;19929;-90
2023/10/18 11:10:06;;;;;;;;;;;;;;;21.35;nan;101617.25;4974570;28;19952;-89
2023/10/18 11:12:33;;;;;;;;;;;;;;;21.48;nan;101612.16;4980344;28;19925;-89
2023/10/18 11:15:00;;;;;;;;;;;;;;;21.61;nan;101616.81;4975600;28;19922;-89
2023/10/18 11:17:29;;;;;;;;;;;;;;;21.76;nan;101608.34;4974319;28;20421;-89
2023/10/18 11:20:02;;;;;;;;;;;;;;;21.86;nan;101610.06;4974831;28;19929;-90
2023/10/18 11:22:33;;;;;;;;;;;;;;;22.02;nan;101609.44;4977198;28;19922;-89
2023/10/18 11:25:00;;;;;;;;;;;;;;;22.13;nan;101612.81;4980077;28;19933;-89
2023/10/18 11:27:48;;;;;;;;;;;;;;;22.24;nan;101603.28;4963485;28;19930;-88
2023/10/18 11:30:24;;;;;;;;;;;;;;;22.28;nan;101598.06;4975965;28;19922;-89
2023/10/18 11:32:54;;;;;;;;;;;;;;;22.39;nan;101602.16;4976501;28;19926;-89
2023/10/18 11:35:42;;;;;;;;;;;;;;;22.58;nan;101602.81;4974206;28;20020;-89
2023/10/18 11:38:10;;;;;;;;;;;;;;;22.74;nan;101592.34;4971151;28;20390;-90
2023/10/18 11:40:41;;;;;;;;;;;;;;;22.87;nan;101585.25;4971272;28;20206;-89
2023/10/18 11:43:10;;;;;;;;;;;;;;;22.98;nan;101589.34;4976556;28;19925;-89
2023/10/18 11:45:39;;;;;;;;;;;;;;;23.10;nan;101577.84;4974521;28;19928;-90
2023/10/18 11:48:09;;;;;;;;;;;;;;;23.24;nan;101564.09;4971261;28;19961;-89
2023/10/18 11:50:48;;;;;;;;;;;;;;;23.36;nan;101564.31;4972058;28;20024;-89
2023/10/18 11:53:33;;;;;;;;;;;;;;;23.49;nan;101557.94;4976593;28;19933;-94
2023/10/18 11:56:00;;;;;;;;;;;;;;;23.52;nan;101551.84;4983619;28;20119;-91
2023/10/18 11:58:26;;;;;;;;;;;;;;;23.58;nan;101550.59;4964278;28;20349;-92
2023/10/18 12:00:59;;;;;;;;;;;;;;;23.59;nan;101549.47;4978711;28;19932;-93
2023/10/18 12:03:27;;;;;;;;;;;;;;;23.65;nan;101548.22;4977377;28;19918;-92
2023/10/18 12:06:14;;;;;;;;;;;;;;;23.68;nan;101546.75;4983163;28;19933;-92
2023/10/18 12:11:41;;;;;;;;;;;;;;;23.79;nan;101535.22;4983374;28;19932;-96
2023/10/18 12:14:32;;;;;;;;;;;;;;;23.90;nan;101533.00;4978732;28;19926;-95
2023/10/18 12:17:00;;;;;;;;;;;;;;;23.94;nan;101536.72;4975591;28;19922;-95
2023/10/18 12:19:31;;;;;;;;;;;;;;;24.08;nan;101533.84;4976988;28;19937;-95
2023/10/18 12:22:02;;;;;;;;;;;;;;;24.18;nan;101528.03;4983480;28;20390;-95
2023/10/18 12:24:38;;;;;;;;;;;;;;;24.25;nan;101524.84;4984245;28;20353;-95
2023/10/18 12:27:21;;;;;;;;;;;;;;;24.32;nan;101522.44;4974093;28;20204;-90
2023/10/18 12:29:48;;;;;;;;;;;;;;;24.40;nan;101516.94;4972739;28;19948;-89
2023/10/18 12:32:25;;;;;;;;;;;;;;;24.56;nan;101500.03;4975581;28;19921;-90
2023/10/18 12:34:58;;;;;;;;;;;;;;;24.77;nan;101511.13;4973716;28;19933;-88
2023/10/18 12:37:24;;;;;;;;;;;;;;;24.86;nan;101509.19;4977034;28;19908;-94
2023/10/18 12:39:52;;;;;;;;;;;;;;;24.84;nan;101504.03;4981168;28;19918;-96
2023/10/18 12:42:21;;;;;;;;;;;;;;;24.69;nan;101504.53;4976393;28;19930;-92
2023/10/18 12:44:48;;;;;;;;;;;;;;;24.59;nan;101504.84;4973890;28;19961;-87
2023/10/18 12:47:19;;;;;;;;;;;;;;;24.56;nan;101503.56;4973215;28;19921;-87
2023/10/18 12:49:44;;;;;;;;;;;;;;;24.50;nan;101491.19;4974059;28;20394;-88
2023/10/18 12:52:42;;;;;;;;;;;;;;;24.49;nan;101495.06;4970474;28;20097;-87
2023/10/18 12:54:58;;;;;;;;;;;;;;;24.61;nan;101491.66;4971029;28;19925;-86
2023/10/18 12:57:32;;;;;;;;;;;;;;;24.71;nan;101486.63;4974881;28;19930;-88
2023/10/18 13:00:17;;;;;;;;;;;;;;;24.84;nan;101473.06;4969881;28;19973;-88
2023/10/18 13:05:40;;;;;;;;;;;;;;;25.26;nan;101469.38;4970494;28;20016;-87
2023/10/18 13:08:22;;;;;;;;;;;;;;;25.61;nan;101464.50;4971000;28;19973;-87
2023/10/18 13:10:59;;;;;;;;;;;;;;;25.83;nan;101466.16;4973306;28;19918;-88
2023/10/18 13:13:26;;;;;;;;;;;;;;;25.90;nan;101462.91;4971053;28;19929;-88
2023/10/18 13:15:57;;;;;;;;;;;;;;;25.89;nan;101458.56;4972986;28;20214;-88
2023/10/18 13:18:22;;;;;;;;;;;;;;;25.84;nan;101464.22;4972679;28;19925;-87
2023/10/18 13:20:50;;;;;;;;;;;;;;;25.99;nan;101460.09;4972343;28;20017;-87
2023/10/18 13:23:18;;;;;;;;;;;;;;;26.11;nan;101447.22;4972125;28;19926;-88
2023/10/18 13:25:54;;;;;;;;;;;;;;;26.00;nan;101450.72;4975888;28;20057;-87
2023/10/18 13:31:09;;;;;;;;;;;;;;;25.24;nan;101440.69;4973635;28;19925;-87
2023/10/18 13:33:35;;;;;;;;;;;;;;;24.99;nan;101437.72;4976088;28;19928;-86
2023/10/18 13:36:13;;;;;;;;;;;;;;;24.85;nan;101430.81;4976554;28;19926;-87
2023/10/18 13:38:40;;;;;;;;;;;;;;;24.75;nan;101428.41;4973512;28;19926;-85
2023/10/18 13:41:12;;;;;;;;;;;;;;;24.65;nan;101422.19;4971601;28;19926;-87
2023/10/18 13:43:41;;;;;;;;;;;;;;;24.66;nan;101422.97;4973607;28;20410;-87
2023/10/18 13:46:18;;;;;;;;;;;;;;;24.69;nan;101422.31;4974255;28;19965;-87
2023/10/18 13:48:54;;;;;;;;;;;;;;;24.75;nan;101415.53;4971973;28;20426;-87
2023/10/18 13:51:21;;;;;;;;;;;;;;;24.78;nan;101408.63;4974630;28;19932;-88
2023/10/18 13:53:48;;;;;;;;;;;;;;;24.80;nan;101406.34;4973965;28;19926;-87
2023/10/18 13:56:15;;;;;;;;;;;;;;;24.74;nan;101400.22;4972123;28;20303;-87
2023/10/18 13:58:44;;;;;;;;;;;;;;;24.61;nan;101399.31;4972619;28;20017;-87
2023/10/18 14:01:18;;;;;;;;;;;;;;;24.56;nan;101398.66;4971332;28;19989;-86
2023/10/18 14:03:48;;;;;;;;;;;;;;;24.53;nan;101400.13;4971205;28;20036;-87
2023/10/18 14:06:18;;;;;;;;;;;;;;;24.48;nan;101394.03;4971762;28;20008;-87
2023/10/18 14:08:45;;;;;;;;;;;;;;;24.40;nan;101388.22;4971703;28;19918;-87
2023/10/18 14:11:19;;;;;;;;;;;;;;;24.28;nan;101379.88;4974805;28;20366;-88
2023/10/18 14:13:45;;;;;;;;;;;;;;;24.12;nan;101384.22;4963199;28;20017;-87
2023/10/18 14:16:16;;;;;;;;;;;;;;;23.92;nan;101385.69;4966516;28;19965;-87
2023/10/18 14:18:47;;;;;;;;;;;;;;;23.72;nan;101386.34;4964929;28;20286;-87
2023/10/18 14:21:16;;;;;;;;;;;;;;;23.54;nan;101381.94;4969498;28;19921;-87